Time;durP1;ratioP1;P1;durP2;ratioP2;P2;SDS_P1;SDS_P2;PMS_P1;PMS_P2;Temp;Humidity;BMP_temperature;BMP_pressure;BME280_temperature;BME280_humidity;BME280_pressure;Samples;Min_cycle;Max_cycle;Signal;HPM_P1;HPM_P2
2022/05/21 00:02:02;;;;;;;2.73;1.53;;;23.70;50.40;;;;;;5052831;28;20201;-34
2022/05/21 00:04:28;;;;;;;2.97;1.80;;;23.70;50.50;;;;;;5052952;28;20180;-34
2022/05/21 00:06:55;;;;;;;10.00;1.80;;;23.70;50.40;;;;;;5052947;28;20404;-34
2022/05/21 00:09:20;;;;;;;2.87;2.57;;;23.70;50.40;;;;;;5052737;28;20896;-35
2022/05/21 00:11:46;;;;;;;3.33;1.80;;;23.70;50.50;;;;;;5052718;28;20411;-34
2022/05/21 00:14:12;;;;;;;4.83;2.10;;;23.70;50.10;;;;;;5052620;28;20165;-34
2022/05/21 00:16:38;;;;;;;2.40;1.60;;;23.60;50.00;;;;;;5052726;28;20407;-35
2022/05/21 00:19:03;;;;;;;3.67;1.80;;;23.50;49.80;;;;;;5052281;28;20224;-34
2022/05/21 00:21:29;;;;;;;3.63;2.30;;;23.50;50.30;;;;;;5052343;28;20314;-34
2022/05/21 00:23:55;;;;;;;3.43;2.33;;;23.50;49.70;;;;;;5052643;28;20255;-34
2022/05/21 00:26:21;;;;;;;3.00;1.83;;;23.40;49.80;;;;;;5052516;28;20176;-34
2022/05/21 00:28:49;;;;;;;2.80;1.93;;;23.40;49.30;;;;;;5052340;28;20903;-34
2022/05/21 00:31:16;;;;;;;2.33;1.40;;;23.40;49.20;;;;;;5052372;28;20487;-34
2022/05/21 00:33:44;;;;;;;3.57;2.63;;;23.40;48.80;;;;;;5052369;28;20415;-34
2022/05/21 00:36:10;;;;;;;3.23;1.77;;;23.30;49.10;;;;;;5052226;28;20651;-34
2022/05/21 00:38:38;;;;;;;2.33;1.80;;;23.20;48.10;;;;;;5051852;28;20534;-34
2022/05/21 00:41:04;;;;;;;3.37;2.13;;;23.20;48.20;;;;;;5052192;28;20912;-34
2022/05/21 00:43:44;;;;;;;2.73;2.00;;;23.10;46.90;;;;;;5052119;28;20490;-34
2022/05/21 00:46:21;;;;;;;2.97;1.90;;;23.00;45.80;;;;;;5052192;28;20776;-34
2022/05/21 00:49:15;;;;;;;2.33;1.93;;;22.90;45.20;;;;;;5051829;28;20962;-34
2022/05/21 00:52:00;;;;;;;4.40;1.83;;;22.70;43.90;;;;;;5052188;28;20408;-34
2022/05/21 00:54:32;;;;;;;2.47;1.87;;;22.70;45.30;;;;;;5052066;28;20787;-34
2022/05/21 00:57:01;;;;;;;2.30;1.73;;;22.70;44.70;;;;;;5051712;28;20398;-34
2022/05/21 01:02:14;;;;;;;4.63;1.50;;;22.60;43.90;;;;;;5052159;28;20525;-34
2022/05/21 01:04:42;;;;;;;2.47;1.83;;;22.50;43.60;;;;;;5051901;28;20538;-34
2022/05/21 01:07:08;;;;;;;2.23;1.37;;;22.50;44.10;;;;;;5051700;28;20435;-34
2022/05/21 01:09:37;;;;;;;6.50;1.30;;;22.40;43.60;;;;;;5051860;28;20403;-34
2022/05/21 01:12:05;;;;;;;1.90;1.27;;;22.40;43.10;;;;;;5052096;28;20188;-34
2022/05/21 01:14:31;;;;;;;1.90;1.33;;;22.30;43.60;;;;;;5051803;28;20775;-34
2022/05/21 01:16:57;;;;;;;2.20;1.33;;;22.30;42.80;;;;;;5051610;28;20403;-34
2022/05/21 01:19:22;;;;;;;7.60;1.90;;;22.20;43.40;;;;;;5051838;28;20399;-35
2022/05/21 01:21:48;;;;;;;2.77;1.50;;;22.10;42.80;;;;;;5051697;28;20169;-35
2022/05/21 01:24:14;;;;;;;3.30;1.73;;;22.00;43.50;;;;;;5051774;28;20196;-35
2022/05/21 01:26:41;;;;;;;2.23;1.40;;;22.00;43.90;;;;;;5051921;28;20404;-34
2022/05/21 01:29:19;;;;;;;2.03;1.33;;;21.90;43.60;;;;;;5051533;28;20434;-34
2022/05/21 01:31:50;;;;;;;2.57;1.37;;;21.90;44.10;;;;;;5051846;28;20392;-34
2022/05/21 01:34:17;;;;;;;2.10;1.40;;;21.80;43.60;;;;;;5051651;28;20404;-34
2022/05/21 01:36:43;;;;;;;1.87;0.90;;;21.80;44.00;;;;;;5051876;28;20431;-34
2022/05/21 01:39:08;;;;;;;1.93;1.57;;;21.80;44.00;;;;;;5051722;28;20967;-34
2022/05/21 01:41:34;;;;;;;2.40;1.97;;;21.70;44.10;;;;;;5052319;28;20905;-34
2022/05/21 01:46:44;;;;;;;2.23;1.63;;;21.70;44.10;;;;;;5055629;28;20261;-33
2022/05/21 01:49:10;;;;;;;2.10;1.27;;;21.70;44.40;;;;;;5055045;28;20459;-34
2022/05/21 01:51:36;;;;;;;2.00;1.53;;;21.70;44.20;;;;;;5055543;28;20162;-34
2022/05/21 01:54:01;;;;;;;2.07;1.23;;;21.70;44.00;;;;;;5055304;28;20215;-34
2022/05/21 01:56:27;;;;;;;2.60;1.27;;;21.60;44.40;;;;;;5055292;28;20434;-34
2022/05/21 01:58:53;;;;;;;2.10;1.47;;;21.60;43.90;;;;;;5055036;28;20240;-34
2022/05/21 02:01:18;;;;;;;2.10;1.33;;;21.60;43.90;;;;;;5055650;28;20618;-34
2022/05/21 02:03:44;;;;;;;2.47;1.67;;;21.50;43.80;;;;;;5055006;28;20212;-34
2022/05/21 02:06:10;;;;;;;2.47;1.43;;;21.40;43.90;;;;;;5055219;28;20415;-34
2022/05/21 02:08:36;;;;;;;2.00;1.30;;;21.40;44.70;;;;;;5054987;28;20239;-34
2022/05/21 02:11:02;;;;;;;2.70;1.50;;;21.40;44.40;;;;;;5055034;28;20173;-34
2022/05/21 02:13:31;;;;;;;1.80;1.00;;;21.40;44.00;;;;;;5055030;28;20244;-34
2022/05/21 02:15:57;;;;;;;2.30;1.50;;;21.40;44.20;;;;;;5054893;28;20181;-34
2022/05/21 02:18:23;;;;;;;2.47;1.55;;;21.40;44.20;;;;;;5054479;28;20200;-34
2022/05/21 02:20:50;;;;;;;2.37;1.30;;;21.40;43.80;;;;;;5054779;28;20189;-34
2022/05/21 02:23:17;;;;;;;2.83;1.40;;;21.40;43.80;;;;;;5054695;28;20262;-34
2022/05/21 02:25:43;;;;;;;2.73;1.60;;;21.40;43.80;;;;;;5054846;28;20412;-34
2022/05/21 02:28:10;;;;;;;1.95;0.88;;;21.40;43.70;;;;;;5054454;28;20455;-34
2022/05/21 02:30:36;;;;;;;1.40;0.60;;;21.40;43.80;;;;;;5054633;28;20182;-34
2022/05/21 02:33:02;;;;;;;1.90;0.93;;;21.40;43.40;;;;;;5054800;28;20176;-34
2022/05/21 02:35:28;;;;;;;4.20;1.08;;;21.40;42.70;;;;;;5054574;28;20260;-34
2022/05/21 02:40:38;;;;;;;1.40;0.73;;;21.20;40.90;;;;;;5054618;28;20949;-34
2022/05/21 02:43:03;;;;;;;1.50;0.70;;;21.10;41.10;;;;;;5054306;28;20201;-34
2022/05/21 02:45:29;;;;;;;1.30;0.50;;;21.00;41.70;;;;;;5054369;28;20648;-34
2022/05/21 02:47:56;;;;;;;1.57;0.90;;;20.90;41.10;;;;;;5054060;28;20216;-34
2022/05/21 02:50:30;;;;;;;2.22;1.30;;;20.90;41.20;;;;;;5054302;28;20408;-34
2022/05/21 02:52:56;;;;;;;1.73;0.82;;;20.80;41.50;;;;;;5053308;28;20181;-33
2022/05/21 02:55:22;;;;;;;1.70;0.80;;;20.80;41.90;;;;;;5054037;28;20177;-34
2022/05/21 02:57:48;;;;;;;1.70;0.60;;;20.70;41.60;;;;;;5053906;28;20958;-34
2022/05/21 03:00:18;;;;;;;1.40;0.67;;;20.70;41.90;;;;;;5054457;28;20180;-34
2022/05/21 03:02:43;;;;;;;1.70;0.90;;;20.70;41.70;;;;;;5054010;28;20217;-34
2022/05/21 03:05:10;;;;;;;1.40;0.80;;;20.70;41.80;;;;;;5054150;28;20497;-34
2022/05/21 03:07:45;;;;;;;1.67;0.70;;;20.70;41.90;;;;;;5053765;28;20193;-34
2022/05/21 03:10:22;;;;;;;1.70;1.08;;;20.70;41.90;;;;;;5053900;28;20180;-34
2022/05/21 03:13:00;;;;;;;1.60;0.80;;;20.70;41.80;;;;;;5053919;28;20644;-34
2022/05/21 03:15:35;;;;;;;1.77;1.00;;;20.70;42.30;;;;;;5053890;28;20264;-34
2022/05/21 03:18:03;;;;;;;3.35;0.70;;;20.70;42.20;;;;;;5053583;28;20191;-34
2022/05/21 03:20:29;;;;;;;2.25;1.10;;;20.70;42.30;;;;;;5053686;28;20188;-34
2022/05/21 03:22:55;;;;;;;2.33;1.10;;;20.70;41.50;;;;;;5053500;28;20209;-34
2022/05/21 03:25:23;;;;;;;3.07;1.00;;;20.60;40.90;;;;;;5053899;28;20252;-34
2022/05/21 03:27:49;;;;;;;1.80;0.80;;;20.50;41.50;;;;;;5053429;28;20193;-34
2022/05/21 03:30:22;;;;;;;1.70;1.00;;;20.40;41.50;;;;;;5053652;28;20262;-34
2022/05/21 03:32:48;;;;;;;1.90;1.10;;;20.40;40.90;;;;;;5053576;28;20208;-34
2022/05/21 03:35:16;;;;;;;2.50;1.70;;;20.40;41.20;;;;;;5053365;28;20232;-34
2022/05/21 03:37:42;;;;;;;2.25;1.40;;;20.40;41.10;;;;;;5053161;28;20816;-34
2022/05/21 03:40:10;;;;;;;2.03;0.93;;;20.30;41.40;;;;;;5053336;28;20182;-34
2022/05/21 03:42:37;;;;;;;2.03;1.25;;;20.40;41.00;;;;;;5053319;28;20193;-34
2022/05/21 03:45:03;;;;;;;1.90;1.20;;;20.30;40.70;;;;;;5053288;28;20183;-34
2022/05/21 03:47:29;;;;;;;2.10;1.30;;;20.30;40.90;;;;;;5053031;28;20208;-34
2022/05/21 03:49:55;;;;;;;2.30;0.90;;;20.30;40.10;;;;;;5053057;28;20275;-34
2022/05/21 03:52:20;;;;;;;3.13;1.60;;;20.20;40.00;;;;;;5053153;28;20200;-34
2022/05/21 03:54:46;;;;;;;1.80;1.17;;;20.10;40.20;;;;;;5053104;28;20169;-34
2022/05/21 03:57:14;;;;;;;3.10;1.80;;;20.10;40.30;;;;;;5052747;28;20584;-34
2022/05/21 03:59:40;;;;;;;2.60;1.25;;;20.10;40.30;;;;;;5052963;28;20188;-34
2022/05/21 04:02:06;;;;;;;2.80;1.30;;;20.10;39.70;;;;;;5052861;28;20173;-34
2022/05/21 04:04:31;;;;;;;1.87;1.27;;;20.10;40.20;;;;;;5052382;28;20234;-34
2022/05/21 04:06:57;;;;;;;2.60;1.60;;;20.10;41.00;;;;;;5052736;28;20169;-34
2022/05/21 04:09:23;;;;;;;4.23;1.83;;;20.00;39.60;;;;;;5052882;28;20304;-34
2022/05/21 04:11:49;;;;;;;2.30;1.37;;;20.00;39.80;;;;;;5052832;28;20663;-34
2022/05/21 04:14:15;;;;;;;2.13;1.53;;;19.90;39.80;;;;;;5052661;28;20415;-35
2022/05/21 04:16:42;;;;;;;2.22;1.60;;;19.90;40.50;;;;;;5052648;28;20173;-35
2022/05/21 04:19:09;;;;;;;2.72;1.58;;;19.90;39.60;;;;;;5052389;28;20747;-34
2022/05/21 04:21:35;;;;;;;3.15;1.30;;;20.00;39.40;;;;;;5052724;28;20177;-34
2022/05/21 04:24:01;;;;;;;6.27;1.60;;;20.00;39.50;;;;;;5052613;28;20212;-34
2022/05/21 04:26:26;;;;;;;2.23;1.40;;;20.00;39.80;;;;;;5052565;28;20177;-34
2022/05/21 04:28:52;;;;;;;2.63;1.77;;;20.00;38.60;;;;;;5052108;28;20194;-34
2022/05/21 04:31:18;;;;;;;2.50;1.87;;;20.00;39.80;;;;;;5052402;28;20197;-34
2022/05/21 04:33:43;;;;;;;2.70;1.47;;;20.00;39.30;;;;;;5052772;28;20177;-34
2022/05/21 04:36:18;;;;;;;3.40;1.40;;;20.00;39.10;;;;;;5052471;28;20530;-34
2022/05/21 04:38:49;;;;;;;1.92;1.10;;;20.00;39.00;;;;;;5052027;28;20212;-34
2022/05/21 04:41:15;;;;;;;2.40;1.80;;;20.00;39.30;;;;;;5052377;28;20181;-34
2022/05/21 04:43:41;;;;;;;2.72;1.67;;;19.90;39.30;;;;;;5052636;28;20252;-34
2022/05/21 04:46:08;;;;;;;2.53;1.67;;;19.80;38.80;;;;;;5052080;28;20264;-34
2022/05/21 04:48:34;;;;;;;2.85;1.80;;;19.70;38.60;;;;;;5051848;28;20196;-34
2022/05/21 04:51:02;;;;;;;3.95;2.42;;;19.70;38.60;;;;;;5052052;28;20196;-34
2022/05/21 04:53:28;;;;;;;2.33;1.70;;;19.60;39.00;;;;;;5052035;28;20208;-34
2022/05/21 04:55:54;;;;;;;3.00;1.55;;;19.60;39.30;;;;;;5052034;28;20629;-34
2022/05/21 04:58:20;;;;;;;1.97;1.40;;;19.60;39.20;;;;;;5051739;28;20287;-34
2022/05/21 05:00:46;;;;;;;3.03;1.80;;;19.60;39.10;;;;;;5051932;28;20883;-35
2022/05/21 05:03:14;;;;;;;3.78;2.15;;;19.70;39.20;;;;;;5052116;28;20205;-34
2022/05/21 05:05:41;;;;;;;2.50;1.60;;;19.70;39.70;;;;;;5051977;28;20180;-34
2022/05/21 05:08:07;;;;;;;2.50;1.40;;;19.70;39.30;;;;;;5051807;28;20220;-34
2022/05/21 05:10:34;;;;;;;3.00;1.53;;;19.70;39.10;;;;;;5051970;28;20204;-34
2022/05/21 05:13:00;;;;;;;3.33;1.40;;;19.70;38.90;;;;;;5051734;28;20834;-34
2022/05/21 05:15:26;;;;;;;2.03;1.50;;;19.70;38.10;;;;;;5052122;28;20177;-34
2022/05/21 05:17:59;;;;;;;3.97;1.80;;;19.60;38.60;;;;;;5054761;28;20193;-34
2022/05/21 05:20:24;;;;;;;2.83;1.50;;;19.60;39.00;;;;;;5056078;28;20596;-34
2022/05/21 05:22:50;;;;;;;2.80;1.23;;;19.50;38.90;;;;;;5055947;28;20242;-34
2022/05/21 05:25:16;;;;;;;3.03;1.80;;;19.60;39.30;;;;;;5055965;28;20687;-34
2022/05/21 05:27:42;;;;;;;2.20;1.50;;;19.50;39.00;;;;;;5055467;28;20419;-34
2022/05/21 05:30:08;;;;;;;3.93;1.70;;;19.50;39.50;;;;;;5055852;28;20404;-33
2022/05/21 05:32:34;;;;;;;3.83;1.63;;;19.60;39.20;;;;;;5055938;28;20189;-34
2022/05/21 05:35:00;;;;;;;3.17;1.30;;;19.50;39.40;;;;;;5055828;28;20268;-34
2022/05/21 05:37:25;;;;;;;2.20;1.53;;;19.50;38.30;;;;;;5055085;28;20216;-34
2022/05/21 05:39:54;;;;;;;2.13;1.37;;;19.40;39.00;;;;;;5054756;28;20260;-34
2022/05/21 05:42:20;;;;;;;2.15;1.25;;;19.50;39.60;;;;;;5054013;28;20200;-34
2022/05/21 05:44:45;;;;;;;12.80;2.07;;;19.40;38.70;;;;;;5054440;28;20174;-33
2022/05/21 05:47:11;;;;;;;2.87;1.90;;;19.40;39.10;;;;;;5054049;28;20208;-34
2022/05/21 05:49:37;;;;;;;2.27;1.30;;;19.40;39.30;;;;;;5054248;28;20763;-34
2022/05/21 05:52:03;;;;;;;3.13;2.20;;;19.50;39.40;;;;;;5054182;28;20181;-34
2022/05/21 05:54:29;;;;;;;4.83;1.63;;;19.50;39.10;;;;;;5054091;28;20243;-33
2022/05/21 05:56:54;;;;;;;3.17;2.00;;;19.50;39.00;;;;;;5053641;28;20415;-34
2022/05/21 06:04:49;;;;;;;2.38;1.48;;;19.50;39.50;;;;;;5054264;28;20176;-34
2022/05/21 06:07:15;;;;;;;2.42;1.70;;;19.50;38.80;;;;;;5054023;28;20553;-33
2022/05/21 06:09:42;;;;;;;2.03;1.20;;;19.40;38.20;;;;;;5053827;28;20176;-34
2022/05/21 06:12:08;;;;;;;4.65;1.98;;;19.30;38.90;;;;;;5053708;28;20408;-34
2022/05/21 06:14:37;;;;;;;1.90;1.35;;;19.30;38.40;;;;;;5053908;28;20177;-35
2022/05/21 06:17:03;;;;;;;2.67;1.60;;;19.30;38.70;;;;;;5053547;28;20169;-34
2022/05/21 06:19:29;;;;;;;2.40;1.23;;;19.30;39.40;;;;;;5053734;28;20519;-34
2022/05/21 06:21:58;;;;;;;4.03;1.83;;;19.30;39.20;;;;;;5053446;28;20438;-35
2022/05/21 06:24:24;;;;;;;2.92;1.83;;;19.40;40.00;;;;;;5054487;28;20177;-33
2022/05/21 06:26:50;;;;;;;5.03;1.70;;;19.30;38.90;;;;;;5053348;28;20181;-34
2022/05/21 06:29:16;;;;;;;1.67;1.10;;;19.30;38.50;;;;;;5053321;28;20173;-34
2022/05/21 06:31:42;;;;;;;4.30;2.23;;;19.30;39.00;;;;;;5053493;28;20177;-34
2022/05/21 06:34:08;;;;;;;1.80;0.90;;;19.30;39.10;;;;;;5053429;28;20435;-34
2022/05/21 06:36:34;;;;;;;3.55;1.30;;;19.30;39.30;;;;;;5053278;28;20490;-34
2022/05/21 06:39:00;;;;;;;2.50;1.70;;;19.40;38.80;;;;;;5013109;28;1183850;-34
2022/05/21 06:41:29;;;;;;;1.70;1.10;;;19.40;39.70;;;;;;5054636;28;20456;-33
2022/05/21 06:43:55;;;;;;;2.78;1.85;;;19.50;40.00;;;;;;5054793;28;20503;-34
2022/05/21 06:46:21;;;;;;;2.20;1.70;;;19.60;39.70;;;;;;5054428;28;20249;-34
2022/05/21 06:48:47;;;;;;;1.83;1.00;;;19.70;38.60;;;;;;5053954;28;20424;-34
2022/05/21 06:51:13;;;;;;;2.33;1.57;;;19.90;38.50;;;;;;5054277;28;20494;-34
2022/05/21 06:53:40;;;;;;;2.47;1.65;;;19.80;38.30;;;;;;5054479;28;20482;-34
2022/05/21 06:56:12;;;;;;;2.13;1.30;;;19.90;39.00;;;;;;5054136;28;20599;-34
2022/05/21 06:58:38;;;;;;;3.30;1.20;;;20.00;38.50;;;;;;5053856;28;20669;-35
2022/05/21 07:01:05;;;;;;;2.47;1.30;;;20.10;38.70;;;;;;5054212;28;20185;-35
2022/05/21 07:03:31;;;;;;;2.42;2.00;;;20.20;38.80;;;;;;5053906;28;20589;-34
2022/05/21 07:08:41;;;;;;;2.08;1.13;;;20.50;39.20;;;;;;5053972;28;20419;-34
2022/05/21 07:11:07;;;;;;;2.65;1.35;;;20.80;38.80;;;;;;5053977;28;20169;-34
2022/05/21 07:13:33;;;;;;;5.00;2.00;;;21.00;38.80;;;;;;5053871;28;20172;-34
2022/05/21 07:15:59;;;;;;;1.80;0.93;;;21.30;38.10;;;;;;5053705;28;20266;-34
2022/05/21 07:18:27;;;;;;;1.85;0.98;;;21.40;36.70;;;;;;5053564;28;20431;-34
2022/05/21 07:20:54;;;;;;;2.15;1.20;;;21.50;37.60;;;;;;5053887;28;20177;-35
2022/05/21 07:23:22;;;;;;;2.28;1.30;;;21.50;36.40;;;;;;5053747;28;20212;-35
2022/05/21 07:25:48;;;;;;;1.80;1.00;;;21.50;35.90;;;;;;5053687;28;20184;-35
2022/05/21 07:28:15;;;;;;;2.30;1.48;;;21.40;35.00;;;;;;5053260;28;20181;-34
2022/05/21 07:30:42;;;;;;;1.63;0.85;;;21.20;36.20;;;;;;5053448;28;20169;-35
2022/05/21 07:33:17;;;;;;;2.33;1.08;;;21.20;36.40;;;;;;5053715;28;20177;-34
2022/05/21 07:35:44;;;;;;;1.55;0.90;;;21.10;36.30;;;;;;5053624;28;20267;-34
2022/05/21 07:38:12;;;;;;;2.03;1.02;;;21.10;34.70;;;;;;5052949;28;20718;-34
2022/05/21 07:40:39;;;;;;;1.90;1.20;;;21.00;35.70;;;;;;5052592;28;20185;-34
2022/05/21 07:43:18;;;;;;;5.80;1.23;;;21.00;35.70;;;;;;5053178;28;20208;-34
2022/05/21 07:45:45;;;;;;;3.55;1.58;;;21.10;36.70;;;;;;5053229;28;20260;-34
2022/05/21 07:48:13;;;;;;;3.80;1.55;;;21.20;37.10;;;;;;5052904;28;20193;-34
2022/05/21 07:50:40;;;;;;;5.55;1.67;;;21.40;37.20;;;;;;5053260;28;20178;-34
2022/05/21 07:53:14;;;;;;;2.72;1.23;;;21.40;36.20;;;;;;5052926;28;20595;-34
2022/05/21 07:55:46;;;;;;;2.20;1.30;;;21.50;35.80;;;;;;5053026;28;20193;-34
2022/05/21 07:58:12;;;;;;;2.25;1.05;;;21.50;36.40;;;;;;5052899;28;20192;-34
2022/05/21 08:00:39;;;;;;;1.60;1.13;;;21.50;36.20;;;;;;5053033;28;20218;-35
2022/05/21 08:03:05;;;;;;;2.30;1.17;;;21.60;36.20;;;;;;5052837;28;20199;-35
2022/05/21 08:05:30;;;;;;;2.37;1.30;;;21.70;36.40;;;;;;5052937;28;20260;-34
2022/05/21 08:07:56;;;;;;;3.50;1.67;;;21.90;36.30;;;;;;5052526;28;20424;-35
2022/05/21 08:10:22;;;;;;;1.67;1.03;;;21.90;35.40;;;;;;5052624;28;20449;-34
2022/05/21 08:12:50;;;;;;;2.00;1.05;;;21.90;35.70;;;;;;5052829;28;20288;-35
2022/05/21 08:15:17;;;;;;;1.77;0.98;;;21.90;35.60;;;;;;5052640;28;20177;-35
2022/05/21 08:17:43;;;;;;;2.22;1.73;;;21.90;34.50;;;;;;5052365;28;20197;-35
2022/05/21 08:20:11;;;;;;;3.28;0.82;;;21.70;35.50;;;;;;5052649;28;20197;-36
2022/05/21 08:28:06;;;;;;;1.90;0.82;;;21.80;34.50;;;;;;5052572;28;20254;-34
2022/05/21 08:30:32;;;;;;;1.50;0.83;;;21.90;34.30;;;;;;5052559;28;20477;-34
2022/05/21 08:33:06;;;;;;;7.27;1.10;;;21.90;34.10;;;;;;5052416;28;20296;-33
2022/05/21 08:35:32;;;;;;;6.32;1.27;;;21.90;34.00;;;;;;5052620;28;20511;-33
2022/05/21 08:37:58;;;;;;;1.60;0.90;;;21.80;33.20;;;;;;5052065;28;20204;-33
2022/05/21 08:40:46;;;;;;;2.00;1.00;;;21.80;34.40;;;;;;5052294;28;20533;-34
2022/05/21 08:43:53;;;;;;;1.87;1.10;;;22.10;34.60;;;;;;5052192;28;20258;-34
2022/05/21 08:46:43;;;;;;;2.00;0.93;;;22.20;32.20;;;;;;5052159;28;20474;-33
2022/05/21 08:49:46;;;;;;;2.13;1.45;;;22.10;33.10;;;;;;5052067;28;20423;-34
2022/05/21 08:52:23;;;;;;;6.30;1.33;;;22.10;31.50;;;;;;5052243;28;20200;-33
2022/05/21 08:54:50;;;;;;;2.20;1.45;;;22.20;32.40;;;;;;5052202;28;20593;-34
2022/05/21 08:57:51;;;;;;;1.70;0.95;;;22.30;32.10;;;;;;5051793;28;20220;-34
2022/05/21 09:00:24;;;;;;;2.30;1.40;;;22.50;32.40;;;;;;5052009;28;20165;-34
2022/05/21 09:02:51;;;;;;;2.20;1.70;;;22.70;33.10;;;;;;5052163;28;20788;-34
2022/05/21 09:05:18;;;;;;;2.20;1.63;;;22.90;32.20;;;;;;5051883;28;20919;-37
2022/05/21 09:08:03;;;;;;;2.77;1.70;;;22.90;31.80;;;;;;5051762;28;20783;-37
2022/05/21 09:10:43;;;;;;;1.70;1.23;;;22.80;31.00;;;;;;5051902;28;21003;-36
2022/05/21 09:13:24;;;;;;;2.10;1.30;;;22.70;31.30;;;;;;5052175;28;20412;-38
2022/05/21 09:18:35;;;;;;;1.97;1.30;;;22.80;32.30;;;;;;5051923;28;20553;-36
2022/05/21 09:21:08;;;;;;;2.10;1.20;;;22.90;31.30;;;;;;5051767;28;20418;-36
2022/05/21 09:24:01;;;;;;;3.10;1.60;;;22.90;32.10;;;;;;5052283;28;20455;-37
2022/05/21 09:26:51;;;;;;;2.70;1.50;;;22.90;32.60;;;;;;5052136;28;20412;-36
2022/05/21 09:29:26;;;;;;;2.20;1.20;;;23.10;31.10;;;;;;5052128;28;20396;-36
2022/05/21 09:31:56;;;;;;;2.73;1.20;;;23.20;31.60;;;;;;5051944;28;20391;-37
2022/05/21 09:34:31;;;;;;;3.17;1.43;;;23.20;32.20;;;;;;5051856;28;20498;-36
2022/05/21 09:36:58;;;;;;;1.80;1.30;;;23.20;31.20;;;;;;5051407;28;20396;-37
2022/05/21 09:39:38;;;;;;;2.80;1.10;;;23.20;30.90;;;;;;5051834;28;20403;-37
2022/05/21 09:45:29;;;;;;;2.40;1.10;;;23.30;32.30;;;;;;5051978;28;20506;-36
2022/05/21 09:48:03;;;;;;;2.23;1.57;;;23.40;32.40;;;;;;5051300;28;20781;-37
2022/05/21 09:50:30;;;;;;;1.77;0.93;;;23.50;31.20;;;;;;5051522;28;20760;-36
2022/05/21 09:52:57;;;;;;;4.20;1.13;;;23.40;28.90;;;;;;5051645;28;20408;-37
2022/05/21 09:55:29;;;;;;;2.30;0.90;;;23.40;30.70;;;;;;5051599;28;20408;-36
2022/05/21 09:58:08;;;;;;;1.87;1.03;;;23.50;30.60;;;;;;5051301;28;20431;-36
2022/05/21 10:00:36;;;;;;;1.67;1.07;;;23.50;31.00;;;;;;5051988;28;20399;-38
2022/05/21 10:03:06;;;;;;;2.97;1.10;;;23.50;29.70;;;;;;5052797;28;20462;-37
2022/05/21 10:05:41;;;;;;;3.20;1.13;;;23.50;30.50;;;;;;5055911;28;20404;-36
2022/05/21 10:11:33;;;;;;;2.30;1.30;;;23.80;30.70;;;;;;5055427;28;20450;-36
2022/05/21 10:14:06;;;;;;;1.97;1.13;;;24.00;30.50;;;;;;5055369;28;20419;-37
2022/05/21 10:16:37;;;;;;;3.60;1.43;;;24.00;28.90;;;;;;5055057;28;20415;-36
2022/05/21 10:19:21;;;;;;;2.03;1.17;;;23.90;29.60;;;;;;5055189;28;20601;-37
2022/05/21 10:22:05;;;;;;;3.90;1.70;;;23.70;28.80;;;;;;5053822;28;20521;-36
2022/05/21 10:24:44;;;;;;;1.80;1.40;;;23.60;29.50;;;;;;5055034;28;20454;-37
2022/05/21 10:27:13;;;;;;;4.30;1.50;;;23.50;29.90;;;;;;5054713;28;20427;-38
2022/05/21 10:30:06;;;;;;;2.90;1.60;;;23.50;30.80;;;;;;5054791;28;20486;-38
2022/05/21 10:32:57;;;;;;;2.07;1.13;;;23.50;30.30;;;;;;5054904;28;20412;-37
2022/05/21 10:35:38;;;;;;;3.33;1.50;;;23.50;29.30;;;;;;5054702;28;20974;-36
2022/05/21 10:38:39;;;;;;;2.93;1.70;;;23.50;29.80;;;;;;5054160;28;20451;-36
2022/05/21 10:41:15;;;;;;;2.27;1.23;;;23.50;30.00;;;;;;5028945;28;20407;-37
2022/05/21 10:43:43;;;;;;;3.80;1.83;;;23.40;28.30;;;;;;5054368;28;20947;-37
2022/05/21 10:46:27;;;;;;;6.60;1.10;;;23.40;28.40;;;;;;5054284;28;20412;-37
2022/05/21 10:49:14;;;;;;;3.20;1.90;;;23.30;29.20;;;;;;5054292;28;20431;-36
2022/05/21 10:51:57;;;;;;;2.03;1.13;;;23.30;28.80;;;;;;5054420;28;20406;-37
2022/05/21 10:55:14;;;;;;;2.23;1.30;;;23.40;29.50;;;;;;5054233;28;20760;-37
2022/05/21 10:57:59;;;;;;;2.00;1.20;;;23.70;30.20;;;;;;5009414;28;20501;-37
2022/05/21 11:00:36;;;;;;;2.53;1.00;;;23.80;27.70;;;;;;5054136;28;20403;-36
2022/05/21 11:03:08;;;;;;;1.70;1.17;;;24.00;29.30;;;;;;5054043;28;20542;-37
2022/05/21 11:06:00;;;;;;;2.10;1.57;;;24.00;28.40;;;;;;5054272;28;20423;-37
2022/05/21 11:08:53;;;;;;;1.60;1.13;;;24.20;28.90;;;;;;5053957;28;20424;-36
2022/05/21 11:12:04;;;;;;;1.90;1.00;;;24.40;28.40;;;;;;5053961;28;20491;-36
2022/05/21 11:14:47;;;;;;;1.80;1.23;;;24.60;28.90;;;;;;4971779;28;20419;-36
2022/05/21 11:17:39;;;;;;;1.70;1.20;;;24.90;29.10;;;;;;4972608;28;20513;-36
2022/05/21 11:20:22;;;;;;;2.93;1.03;;;25.10;28.70;;;;;;4968050;28;20920;-36
2022/05/21 11:23:24;;;;;;;2.10;1.10;;;25.30;27.40;;;;;;4972793;28;21009;-36
2022/05/21 11:25:57;;;;;;;2.73;2.03;;;25.40;27.20;;;;;;4972732;28;20992;-36
2022/05/21 11:28:42;;;;;;;2.57;1.07;;;25.40;28.50;;;;;;4972356;28;20436;-38
2022/05/21 11:31:14;;;;;;;2.10;1.53;;;25.60;26.90;;;;;;4972490;28;20410;-37
2022/05/21 11:39:19;;;;;;;1.80;0.97;;;25.20;27.50;;;;;;4972605;28;20458;-37
2022/05/21 11:41:53;;;;;;;1.77;0.90;;;25.10;28.30;;;;;;4972304;28;20412;-37
2022/05/21 11:47:13;;;;;;;2.90;1.00;;;25.20;30.00;;;;;;5053351;28;20407;-34
2022/05/21 11:49:45;;;;;;;3.80;1.33;;;25.30;29.20;;;;;;5053504;28;20407;-34
2022/05/21 11:52:26;;;;;;;2.90;1.17;;;25.30;29.00;;;;;;5053225;28;20419;-34
2022/05/21 11:54:54;;;;;;;1.80;1.00;;;25.40;29.50;;;;;;5053153;28;20494;-34
2022/05/21 11:57:36;;;;;;;1.80;0.77;;;25.60;30.10;;;;;;5052684;28;20432;-35
2022/05/21 12:00:28;;;;;;;2.43;1.30;;;25.70;27.90;;;;;;5053426;28;20408;-34
2022/05/21 12:02:53;;;;;;;2.10;1.20;;;25.60;29.00;;;;;;5052701;28;20520;-35
2022/05/21 12:05:34;;;;;;;2.17;1.33;;;25.40;27.90;;;;;;5052840;28;20411;-34
2022/05/21 12:08:33;;;;;;;2.07;1.10;;;25.30;29.00;;;;;;5052543;28;20248;-35
2022/05/21 12:11:34;;;;;;;1.80;1.23;;;25.20;29.30;;;;;;5052953;28;20415;-34
2022/05/21 12:14:15;;;;;;;3.57;2.97;;;25.10;30.30;;;;;;5036551;28;20474;-34
2022/05/21 12:16:45;;;;;;;4.77;1.57;;;25.10;29.90;;;;;;5052713;28;20403;-34
2022/05/21 12:19:11;;;;;;;2.77;1.67;;;25.00;29.60;;;;;;5052445;28;20440;-34
2022/05/21 12:21:36;;;;;;;2.73;1.57;;;24.90;29.60;;;;;;5052694;28;20403;-34
2022/05/21 12:24:21;;;;;;;1.67;1.23;;;24.70;28.80;;;;;;5052960;28;20521;-35
2022/05/21 12:26:48;;;;;;;2.47;1.13;;;24.60;30.40;;;;;;5052372;28;20169;-34
2022/05/21 12:29:27;;;;;;;5.93;1.97;;;24.50;29.80;;;;;;5052590;28;20494;-34
2022/05/21 12:31:54;;;;;;;3.60;1.10;;;24.50;30.80;;;;;;5052369;28;20756;-34
2022/05/21 12:34:23;;;;;;;4.73;1.60;;;24.70;31.90;;;;;;5052269;28;20420;-34
2022/05/21 12:36:59;;;;;;;2.27;1.23;;;24.90;31.00;;;;;;5051912;28;20474;-34
2022/05/21 12:39:51;;;;;;;2.00;1.23;;;25.00;30.40;;;;;;5052539;28;20826;-34
2022/05/21 12:42:47;;;;;;;1.67;0.70;;;24.90;28.90;;;;;;5042453;28;20432;-34
2022/05/21 12:45:36;;;;;;;1.77;0.97;;;25.10;27.30;;;;;;5041915;28;20502;-34
2022/05/21 12:48:19;;;;;;;1.67;0.80;;;25.10;28.20;;;;;;5041223;28;20466;-34
2022/05/21 12:51:08;;;;;;;3.00;1.10;;;25.10;27.80;;;;;;5052208;28;20518;-34
2022/05/21 12:53:42;;;;;;;3.50;0.90;;;25.00;26.70;;;;;;5051888;28;20415;-34
2022/05/21 12:56:26;;;;;;;1.47;0.83;;;24.70;27.20;;;;;;5052318;28;20867;-34
2022/05/21 12:59:06;;;;;;;2.97;0.80;;;24.60;27.30;;;;;;5050454;28;20526;-34
2022/05/21 13:01:34;;;;;;;5.33;1.40;;;24.30;27.60;;;;;;5052102;28;20408;-34
2022/05/21 13:04:01;;;;;;;1.90;0.90;;;24.30;29.30;;;;;;5051736;28;20483;-34
2022/05/21 13:06:32;;;;;;;2.20;1.10;;;24.30;29.60;;;;;;5052178;28;20414;-34
2022/05/21 13:09:00;;;;;;;1.67;0.87;;;24.50;30.60;;;;;;5051858;28;20453;-34
2022/05/21 13:11:36;;;;;;;2.40;0.80;;;24.70;28.60;;;;;;5052041;28;20412;-34
2022/05/21 13:14:08;;;;;;;3.00;1.23;;;24.90;29.20;;;;;;5051942;28;20407;-34
2022/05/21 13:16:35;;;;;;;1.73;0.83;;;24.90;29.80;;;;;;5051683;28;20408;-34
2022/05/21 13:19:17;;;;;;;2.17;1.03;;;25.00;29.60;;;;;;5051518;28;20588;-34
2022/05/21 13:22:13;;;;;;;2.17;1.00;;;25.00;28.10;;;;;;5051849;28;20888;-34
2022/05/21 13:24:47;;;;;;;1.80;0.90;;;24.80;27.90;;;;;;5051778;28;20907;-35
2022/05/21 13:27:16;;;;;;;1.80;0.93;;;24.50;28.50;;;;;;5051747;28;20478;-35
2022/05/21 13:29:42;;;;;;;1.73;0.93;;;24.20;28.70;;;;;;5051658;28;20406;-34
2022/05/21 13:32:30;;;;;;;1.80;1.00;;;24.10;28.90;;;;;;5051674;28;20404;-34
2022/05/21 13:35:01;;;;;;;2.30;1.03;;;23.90;29.90;;;;;;5051611;28;20396;-35
2022/05/21 13:37:29;;;;;;;1.97;0.90;;;23.80;29.90;;;;;;5051537;28;20451;-34
2022/05/21 13:40:08;;;;;;;1.87;1.00;;;23.60;29.70;;;;;;5055867;28;20499;-34
2022/05/21 13:42:36;;;;;;;1.50;0.80;;;23.50;29.70;;;;;;5055513;28;20985;-34
2022/05/21 13:45:11;;;;;;;2.10;1.13;;;23.40;29.90;;;;;;5055448;28;20408;-34
2022/05/21 13:47:42;;;;;;;1.73;0.90;;;23.40;30.10;;;;;;5055132;28;20430;-34